createdAt,value
2023-03-21T00:00:41.003Z,5.67
2023-03-21T00:03:07.817Z,5.63
2023-03-21T00:05:34.699Z,7.40
2023-03-21T00:08:02.728Z,9.10
2023-03-21T00:10:39.813Z,6.37
2023-03-21T00:13:13.072Z,8.63
2023-03-21T00:16:01.917Z,6.40
2023-03-21T00:18:31.673Z,9.50
2023-03-21T00:21:35.601Z,7.47
2023-03-21T00:23:50.265Z,5.20
2023-03-21T00:26:17.181Z,7.20
2023-03-21T00:28:44.152Z,7.27
2023-03-21T00:31:11.286Z,6.50
2023-03-21T00:33:39.122Z,10.23
2023-03-21T00:36:07.545Z,5.40
2023-03-21T00:38:34.874Z,6.30
2023-03-21T00:41:14.272Z,6.40
2023-03-21T00:43:46.202Z,8.30
2023-03-21T00:46:12.678Z,5.37
2023-03-21T00:48:39.305Z,8.37
2023-03-21T00:51:15.477Z,8.27
2023-03-21T00:53:42.391Z,7.33
2023-03-21T00:56:09.392Z,10.77
2023-03-21T00:58:36.048Z,6.63
2023-03-21T01:01:02.661Z,5.40
2023-03-21T01:03:29.193Z,8.30
2023-03-21T01:06:05.507Z,8.40
2023-03-21T01:08:48.582Z,8.07
2023-03-21T01:11:20.624Z,8.53
2023-03-21T01:13:54.587Z,5.53
2023-03-21T01:16:25.349Z,7.03
2023-03-21T01:18:52.412Z,6.13
2023-03-21T01:21:19.635Z,11.97
2023-03-21T01:23:46.296Z,5.90
2023-03-21T01:26:13.694Z,8.30
2023-03-21T01:28:42.528Z,7.10
2023-03-21T01:31:11.435Z,9.33
2023-03-21T01:33:38.612Z,7.10
2023-03-21T01:36:12.752Z,9.10
2023-03-21T01:38:41.694Z,5.63
2023-03-21T01:41:20.134Z,7.27
2023-03-21T01:43:47.715Z,6.70
2023-03-21T01:47:04.014Z,9.57
2023-03-21T01:49:49.528Z,8.57
2023-03-21T01:52:37.514Z,9.77
2023-03-21T01:55:18.943Z,6.63
2023-03-21T01:58:06.785Z,8.40
2023-03-21T02:00:51.213Z,6.77
2023-03-21T02:03:35.939Z,6.97
2023-03-21T02:06:38.256Z,9.67
2023-03-21T02:09:16.377Z,8.30
2023-03-21T02:11:46.505Z,5.97
2023-03-21T02:14:26.636Z,6.73
2023-03-21T02:17:28.369Z,7.77
2023-03-21T02:20:25.270Z,10.57
2023-03-21T02:23:01.709Z,7.90
2023-03-21T02:25:48.800Z,9.93
2023-03-21T02:28:27.863Z,8.43
2023-03-21T02:31:28.751Z,5.60
2023-03-21T02:34:13.217Z,7.53
2023-03-21T02:37:01.168Z,11.70
2023-03-21T02:39:56.076Z,8.03
2023-03-21T02:42:44.949Z,7.67
2023-03-21T02:45:20.471Z,6.37
2023-03-21T02:48:25.373Z,8.87
2023-03-21T02:50:58.915Z,6.40
2023-03-21T02:53:31.655Z,5.33
2023-03-21T02:56:00.901Z,10.07
2023-03-21T02:58:32.189Z,7.77
2023-03-21T03:00:59.974Z,5.80
2023-03-21T03:03:35.160Z,7.70
2023-03-21T03:06:13.427Z,7.53
2023-03-21T03:09:02.294Z,8.37
2023-03-21T03:11:43.112Z,6.93
2023-03-21T03:14:38.550Z,5.70
2023-03-21T03:17:03.221Z,5.77
2023-03-21T03:19:44.640Z,9.17
2023-03-21T03:22:26.228Z,8.00
2023-03-21T03:25:04.766Z,7.93
2023-03-21T03:27:43.936Z,7.53
2023-03-21T03:30:12.733Z,6.90
2023-03-21T03:32:48.525Z,7.03
2023-03-21T03:35:18.054Z,6.27
2023-03-21T03:37:51.389Z,7.23
2023-03-21T03:40:26.087Z,4.87
2023-03-21T03:43:10.324Z,5.67
2023-03-21T03:45:47.704Z,5.77
2023-03-21T03:48:29.723Z,5.20
2023-03-21T03:51:27.507Z,6.80
2023-03-21T03:54:12.828Z,7.70
2023-03-21T03:56:40.620Z,7.83
2023-03-21T03:59:09.973Z,8.93
2023-03-21T04:01:59.045Z,9.93
2023-03-21T04:04:28.558Z,8.03
2023-03-21T04:06:57.959Z,7.33
2023-03-21T04:09:42.744Z,5.80
2023-03-21T04:12:10.122Z,6.03
2023-03-21T04:14:44.326Z,5.77
2023-03-21T04:17:12.673Z,7.90
2023-03-21T04:19:39.176Z,7.17
2023-03-21T04:22:06.483Z,8.43
2023-03-21T04:24:39.422Z,8.47
2023-03-21T04:27:06.286Z,5.73
2023-03-21T04:29:40.803Z,7.10
2023-03-21T04:32:26.563Z,4.90
2023-03-21T04:35:03.166Z,5.30
2023-03-21T04:37:33.793Z,6.97
2023-03-21T04:40:02.653Z,4.43
2023-03-21T04:42:29.758Z,8.57
2023-03-21T04:44:56.352Z,7.07
2023-03-21T04:47:24.058Z,7.10
2023-03-21T04:49:51.629Z,7.53
2023-03-21T04:52:18.122Z,6.63
2023-03-21T04:54:44.759Z,9.57
2023-03-21T04:57:11.213Z,9.77
2023-03-21T04:59:37.855Z,7.90
2023-03-21T05:02:04.377Z,5.40
2023-03-21T05:04:31.563Z,6.00
2023-03-21T05:06:58.800Z,6.73
2023-03-21T05:09:27.732Z,6.67
2023-03-21T05:11:54.259Z,5.47
2023-03-21T05:14:23.723Z,8.63
2023-03-21T05:16:56.262Z,10.40
2023-03-21T05:19:34.961Z,6.90
2023-03-21T05:22:09.216Z,9.00
2023-03-21T05:24:41.669Z,9.93
2023-03-21T05:27:14.162Z,7.27
2023-03-21T05:29:44.831Z,9.70
2023-03-21T05:32:11.481Z,10.93
2023-03-21T05:34:38.776Z,10.00
2023-03-21T05:37:05.589Z,9.10
2023-03-21T05:39:47.979Z,8.17
2023-03-21T05:42:22.681Z,7.23
2023-03-21T05:44:49.477Z,6.33
2023-03-21T05:47:19.581Z,6.77
2023-03-21T05:49:47.357Z,11.13
2023-03-21T05:52:14.626Z,7.97
2023-03-21T05:54:41.123Z,8.37
2023-03-21T05:57:07.718Z,7.47
2023-03-21T05:59:57.059Z,12.73
2023-03-21T06:02:23.567Z,7.27
2023-03-21T06:04:51.150Z,6.23
2023-03-21T06:07:21.220Z,8.43
2023-03-21T06:09:47.723Z,8.93
2023-03-21T06:12:14.481Z,10.77
2023-03-21T06:15:01.802Z,5.10
2023-03-21T06:17:32.643Z,8.57
2023-03-21T06:20:06.874Z,7.80
2023-03-21T06:22:39.622Z,8.63
2023-03-21T06:25:07.857Z,10.57
2023-03-21T06:27:35.471Z,7.53
2023-03-21T06:30:02.373Z,7.07
2023-03-21T06:32:36.047Z,6.60
2023-03-21T06:35:09.778Z,5.77
2023-03-21T06:37:38.265Z,4.73
2023-03-21T06:40:06.130Z,7.33
2023-03-21T06:42:32.786Z,7.23
2023-03-21T06:45:06.979Z,6.90
2023-03-21T06:47:33.642Z,5.87
2023-03-21T06:50:02.422Z,16.93
2023-03-21T06:52:31.664Z,25.00
2023-03-21T06:54:58.165Z,24.30
2023-03-21T06:57:25.609Z,18.20
2023-03-21T06:59:52.611Z,15.53
2023-03-21T07:02:21.401Z,13.67
2023-03-21T07:04:57.699Z,12.47
2023-03-21T07:07:29.658Z,10.93
2023-03-21T07:09:56.651Z,10.53
2023-03-21T07:12:24.170Z,9.23
2023-03-21T07:15:07.167Z,8.17
2023-03-21T07:17:34.314Z,11.53
2023-03-21T07:20:00.772Z,7.73
2023-03-21T07:22:28.272Z,8.00
2023-03-21T07:25:04.395Z,7.07
2023-03-21T07:27:39.149Z,5.47
2023-03-21T07:30:07.996Z,7.87
2023-03-21T07:32:35.319Z,5.87
2023-03-21T07:35:02.134Z,8.40
2023-03-21T07:37:28.675Z,5.23
2023-03-21T07:39:56.529Z,6.90
2023-03-21T07:42:24.756Z,6.50
2023-03-21T07:44:58.454Z,7.83
2023-03-21T07:47:24.979Z,8.00
2023-03-21T07:49:51.568Z,7.70
2023-03-21T07:52:18.067Z,7.10
2023-03-21T07:54:44.549Z,8.80
2023-03-21T07:57:13.564Z,6.10
2023-03-21T07:59:40.309Z,7.40
2023-03-21T08:02:07.259Z,7.73
2023-03-21T08:04:37.616Z,6.70
2023-03-21T08:07:04.166Z,6.83
2023-03-21T08:09:31.411Z,5.37
2023-03-21T08:11:58.138Z,6.97
2023-03-21T08:14:24.677Z,5.47
2023-03-21T08:16:51.400Z,6.67
2023-03-21T08:19:20.708Z,7.30
2023-03-21T08:21:49.495Z,6.23
2023-03-21T08:24:16.446Z,5.47
2023-03-21T08:26:44.310Z,6.20
2023-03-21T08:29:10.895Z,5.63
2023-03-21T08:31:37.572Z,6.77
2023-03-21T08:34:04.139Z,5.07
2023-03-21T08:36:31.546Z,4.97
2023-03-21T08:39:05.245Z,5.90
2023-03-21T08:41:33.055Z,6.53
2023-03-21T08:43:59.608Z,5.30
2023-03-21T08:46:26.849Z,6.70
2023-03-21T08:48:54.375Z,6.20
2023-03-21T08:51:21.726Z,6.80
2023-03-21T08:53:50.978Z,7.27
2023-03-21T08:56:18.316Z,7.33
2023-03-21T08:58:45.048Z,8.43
2023-03-21T09:01:15.723Z,8.10
2023-03-21T09:03:43.151Z,5.70
2023-03-21T09:06:12.237Z,5.47
2023-03-21T09:08:39.250Z,6.57
2023-03-21T09:11:06.141Z,7.73
2023-03-21T09:13:32.658Z,5.13
2023-03-21T09:16:01.336Z,7.73
2023-03-21T09:18:49.002Z,7.50
2023-03-21T09:21:18.191Z,5.27
2023-03-21T09:23:44.976Z,6.77
2023-03-21T09:26:13.294Z,6.53
2023-03-21T09:28:40.618Z,5.47
2023-03-21T09:31:12.271Z,5.23
2023-03-21T09:33:42.383Z,5.73
2023-03-21T09:36:14.633Z,7.13
2023-03-21T09:38:45.458Z,6.13
2023-03-21T09:41:37.608Z,5.10
2023-03-21T09:44:19.344Z,5.63
2023-03-21T09:47:02.705Z,4.87
2023-03-21T09:49:34.873Z,6.20
2023-03-21T09:52:07.965Z,7.70
2023-03-21T09:54:42.989Z,8.53
2023-03-21T09:57:31.879Z,6.50
2023-03-21T10:00:08.552Z,10.20
2023-03-21T10:02:47.140Z,10.20
2023-03-21T10:05:22.099Z,7.30
2023-03-21T10:08:09.229Z,6.00
2023-03-21T10:10:39.724Z,6.87
2023-03-21T10:13:15.667Z,7.67
2023-03-21T10:15:42.419Z,6.97
2023-03-21T10:18:14.189Z,4.77
2023-03-21T10:20:42.528Z,6.80
2023-03-21T10:23:14.972Z,4.90
2023-03-21T10:25:46.355Z,5.63
2023-03-21T10:28:20.827Z,4.63
2023-03-21T10:30:55.487Z,5.37
2023-03-21T10:33:26.376Z,5.50
2023-03-21T10:35:59.645Z,6.10
2023-03-21T10:38:27.051Z,4.70
2023-03-21T10:40:54.230Z,4.97
2023-03-21T10:43:31.020Z,3.50
2023-03-21T10:45:57.701Z,3.80
2023-03-21T10:48:24.586Z,6.83
2023-03-21T10:50:54.219Z,9.20
2023-03-21T10:53:26.933Z,4.00
2023-03-21T10:55:57.614Z,3.23
2023-03-21T10:58:33.348Z,6.00
2023-03-21T11:01:07.725Z,5.43
2023-03-21T11:03:43.539Z,5.90
2023-03-21T11:06:22.481Z,4.10
2023-03-21T11:08:53.951Z,5.40
2023-03-21T11:11:27.595Z,3.67
2023-03-21T11:14:07.871Z,4.00
2023-03-21T11:16:41.194Z,5.17
2023-03-21T11:19:20.666Z,5.70
2023-03-21T11:21:47.649Z,3.80
2023-03-21T11:24:17.456Z,5.07
2023-03-21T11:26:49.731Z,3.27
2023-03-21T11:29:40.434Z,6.03
2023-03-21T11:32:27.191Z,3.67
2023-03-21T11:34:59.555Z,2.50
2023-03-21T11:37:39.294Z,2.80
2023-03-21T11:40:22.091Z,3.63
2023-03-21T11:42:54.498Z,3.27
2023-03-21T11:45:24.311Z,3.10
2023-03-21T11:47:54.262Z,2.30
2023-03-21T11:50:41.573Z,3.07
2023-03-21T11:53:39.562Z,2.47
2023-03-21T11:56:25.034Z,3.30
2023-03-21T11:58:58.599Z,3.53
2023-03-21T12:01:30.706Z,2.57
2023-03-21T12:04:11.528Z,2.93
2023-03-21T12:06:44.515Z,3.50
2023-03-21T12:09:34.411Z,3.23
2023-03-21T12:12:15.259Z,6.83
2023-03-21T12:14:44.632Z,5.80
2023-03-21T12:17:38.522Z,3.83
2023-03-21T12:20:11.249Z,7.30
2023-03-21T12:23:06.148Z,5.33
2023-03-21T12:25:42.132Z,5.90
2023-03-21T12:28:16.913Z,7.67
2023-03-21T12:31:29.920Z,5.30
2023-03-21T12:34:13.654Z,4.20
2023-03-21T12:37:07.332Z,4.77
2023-03-21T12:39:36.735Z,4.37
2023-03-21T12:42:42.039Z,7.20
2023-03-21T12:45:27.532Z,5.30
2023-03-21T12:48:06.662Z,6.00
2023-03-21T12:50:37.399Z,6.57
2023-03-21T12:53:31.578Z,7.67
2023-03-21T12:56:02.918Z,4.97
2023-03-21T12:58:33.099Z,6.83
2023-03-21T13:01:01.958Z,5.00
2023-03-21T13:03:45.295Z,5.97
2023-03-21T13:06:15.453Z,8.07
2023-03-21T13:08:49.821Z,4.93
2023-03-21T13:11:21.643Z,5.57
2023-03-21T13:14:04.317Z,5.53
2023-03-21T13:16:42.292Z,6.87
2023-03-21T13:19:15.821Z,7.20
2023-03-21T13:22:06.093Z,7.87
2023-03-21T13:24:54.906Z,9.00
2023-03-21T13:27:24.833Z,5.93
2023-03-21T13:30:06.436Z,4.93
2023-03-21T13:32:39.759Z,6.33
2023-03-21T13:35:09.697Z,5.30
2023-03-21T13:37:42.048Z,5.50
2023-03-21T13:40:23.096Z,7.37
2023-03-21T13:42:56.899Z,8.63
2023-03-21T13:45:44.690Z,8.87
2023-03-21T13:48:58.611Z,7.23
2023-03-21T13:51:28.863Z,7.53
2023-03-21T13:54:03.225Z,9.10
2023-03-21T13:56:47.764Z,8.30
2023-03-21T13:59:19.334Z,8.63
2023-03-21T14:02:23.161Z,7.70
2023-03-21T14:05:05.378Z,6.83
2023-03-21T14:07:42.467Z,8.80
2023-03-21T14:10:20.316Z,9.00
2023-03-21T14:12:47.514Z,7.30
2023-03-21T14:15:21.527Z,12.23
2023-03-21T14:17:55.380Z,11.07
2023-03-21T14:20:24.366Z,10.60
2023-03-21T14:22:51.085Z,10.27
2023-03-21T14:25:20.558Z,10.13
2023-03-21T14:27:50.807Z,11.27
2023-03-21T14:30:30.281Z,8.27
2023-03-21T14:32:59.257Z,6.03
2023-03-21T14:35:31.329Z,6.90
2023-03-21T14:38:01.337Z,6.50
2023-03-21T14:40:29.056Z,8.40
2023-03-21T14:42:55.972Z,6.80
2023-03-21T14:45:28.230Z,7.77
2023-03-21T14:47:59.816Z,7.77
2023-03-21T14:50:57.160Z,8.03
2023-03-21T14:53:29.154Z,8.43
2023-03-21T14:56:03.784Z,8.83
2023-03-21T14:58:31.138Z,8.60
2023-03-21T15:01:01.974Z,6.07
2023-03-21T15:03:28.552Z,6.93
2023-03-21T15:05:55.966Z,7.43
2023-03-21T15:08:28.732Z,6.73
2023-03-21T15:11:07.742Z,7.77
2023-03-21T15:13:42.456Z,8.17
2023-03-21T15:16:11.202Z,7.07
2023-03-21T15:18:39.824Z,6.63
2023-03-21T15:21:12.539Z,7.80
2023-03-21T15:23:43.081Z,7.63
2023-03-21T15:26:16.522Z,8.53
2023-03-21T15:28:46.810Z,7.17
2023-03-21T15:31:19.848Z,7.87
2023-03-21T15:33:52.082Z,6.37
2023-03-21T15:36:27.663Z,9.83
2023-03-21T15:38:55.676Z,6.10
2023-03-21T15:41:28.807Z,7.17
2023-03-21T15:44:10.125Z,7.57
2023-03-21T15:46:43.537Z,6.97
2023-03-21T15:49:31.602Z,7.13
2023-03-21T15:52:06.911Z,7.67
2023-03-21T15:54:41.224Z,7.43
2023-03-21T15:57:21.659Z,6.87
2023-03-21T15:59:48.956Z,6.47
2023-03-21T16:02:19.865Z,6.43
2023-03-21T16:05:01.636Z,6.70
2023-03-21T16:07:28.776Z,8.53
2023-03-21T16:10:04.567Z,5.90
2023-03-21T16:12:31.115Z,7.40
2023-03-21T16:14:57.623Z,6.90
2023-03-21T16:17:30.177Z,5.23
2023-03-21T16:19:56.676Z,5.17
2023-03-21T16:22:23.171Z,6.70
2023-03-21T16:24:49.670Z,6.33
2023-03-21T16:27:18.739Z,7.63
2023-03-21T16:29:45.249Z,6.20
2023-03-21T16:32:16.749Z,8.60
2023-03-21T16:34:43.370Z,8.10
2023-03-21T16:37:11.782Z,6.17
2023-03-21T16:39:38.468Z,7.63
2023-03-21T16:42:05.020Z,6.17
2023-03-21T16:44:31.786Z,9.97
2023-03-21T16:46:59.838Z,6.50
2023-03-21T16:49:28.303Z,8.63
2023-03-21T16:51:56.269Z,7.23
2023-03-21T16:54:23.144Z,6.50
2023-03-21T16:56:52.125Z,7.67
2023-03-21T16:59:19.038Z,14.63
2023-03-21T17:01:47.644Z,14.30
2023-03-21T17:04:16.003Z,25.80
2023-03-21T17:06:51.038Z,18.37
2023-03-21T17:09:21.615Z,16.37
2023-03-21T17:11:48.293Z,13.20
2023-03-21T17:14:21.080Z,16.17
2023-03-21T17:16:48.686Z,13.40
2023-03-21T17:19:21.578Z,10.43
2023-03-21T17:21:53.952Z,13.07
2023-03-21T17:24:20.467Z,12.27
2023-03-21T17:26:46.929Z,7.77
2023-03-21T17:29:14.813Z,9.03
2023-03-21T17:31:41.363Z,11.27
2023-03-21T17:34:08.434Z,10.87
2023-03-21T17:36:37.626Z,6.40
2023-03-21T17:39:06.565Z,7.03
2023-03-21T17:41:33.386Z,6.93
2023-03-21T17:43:59.856Z,7.30
2023-03-21T17:46:29.131Z,7.47
2023-03-21T17:48:56.692Z,9.50
2023-03-21T17:51:26.031Z,5.77
2023-03-21T17:53:52.580Z,8.03
2023-03-21T17:56:31.632Z,8.23
2023-03-21T17:59:04.740Z,8.57
2023-03-21T18:01:31.682Z,12.03
2023-03-21T18:04:02.074Z,14.13
2023-03-21T18:06:28.572Z,12.53
2023-03-21T18:08:55.335Z,9.57
2023-03-21T18:11:22.905Z,7.67
2023-03-21T18:13:49.797Z,6.60
2023-03-21T18:16:22.749Z,7.03
2023-03-21T18:18:50.951Z,7.53
2023-03-21T18:21:20.264Z,13.10
2023-03-21T18:23:47.342Z,14.70
2023-03-21T18:26:17.630Z,16.60
2023-03-21T18:28:44.834Z,24.17
2023-03-21T18:31:19.879Z,63.97
2023-03-21T18:33:48.904Z,66.27
2023-03-21T18:36:25.400Z,62.27
2023-03-21T18:38:52.742Z,187.57
2023-03-21T18:41:19.797Z,156.57
2023-03-21T18:44:05.596Z,128.17
2023-03-21T18:46:33.288Z,80.00
2023-03-21T18:49:19.940Z,43.67
2023-03-21T18:51:47.097Z,34.87
2023-03-21T18:54:13.633Z,33.43
2023-03-21T18:59:28.659Z,24.77
2023-03-21T19:01:55.116Z,21.03
2023-03-21T19:04:29.364Z,20.63
2023-03-21T19:06:58.119Z,21.80
2023-03-21T19:09:31.133Z,24.03
2023-03-21T19:11:58.105Z,20.77
2023-03-21T19:14:24.616Z,20.87
2023-03-21T19:19:38.698Z,16.03
2023-03-21T19:22:05.176Z,17.90
2023-03-21T19:24:31.791Z,15.77
2023-03-21T19:26:58.407Z,15.27
2023-03-21T19:29:25.788Z,15.37
2023-03-21T19:31:52.877Z,13.97
2023-03-21T19:34:19.621Z,15.03
2023-03-21T19:36:51.411Z,15.20
2023-03-21T19:39:21.907Z,16.23
2023-03-21T19:41:48.794Z,17.10
2023-03-21T19:44:15.377Z,18.03
2023-03-21T19:46:42.114Z,16.43
2023-03-21T19:49:08.653Z,15.53
2023-03-21T19:51:35.663Z,21.90
2023-03-21T19:54:05.008Z,17.77
2023-03-21T19:56:31.999Z,32.10
2023-03-21T19:58:59.619Z,33.37
2023-03-21T20:01:26.435Z,17.73
2023-03-21T20:03:53.358Z,14.80
2023-03-21T20:06:23.306Z,17.03
2023-03-21T20:11:43.176Z,13.07
2023-03-21T20:14:09.769Z,14.47
2023-03-21T20:16:36.974Z,13.47
2023-03-21T20:19:10.121Z,14.67
2023-03-21T20:21:48.156Z,16.10
2023-03-21T20:24:16.902Z,11.83
2023-03-21T20:26:45.118Z,11.70
2023-03-21T20:30:03.794Z,9.67
2023-03-21T20:31:58.209Z,8.33
2023-03-21T20:34:24.712Z,12.00
2023-03-21T20:36:51.461Z,8.63
2023-03-21T20:39:17.957Z,8.20
2023-03-21T20:41:44.428Z,7.27
2023-03-21T20:46:57.579Z,8.47
2023-03-21T20:49:24.826Z,7.60
2023-03-21T20:54:38.491Z,6.47
2023-03-21T20:57:05.349Z,7.37
2023-03-21T20:59:32.552Z,5.83
2023-03-21T21:01:59.994Z,7.53
2023-03-21T21:04:48.228Z,5.93
2023-03-21T21:07:17.559Z,6.00
2023-03-21T21:09:45.072Z,6.63
2023-03-21T21:12:13.210Z,7.20
2023-03-21T21:14:40.695Z,9.20
2023-03-21T21:17:24.633Z,6.47
2023-03-21T21:19:54.311Z,7.33
2023-03-21T21:22:20.932Z,8.37
2023-03-21T21:24:47.890Z,9.70
2023-03-21T21:27:14.371Z,8.80
2023-03-21T21:29:43.177Z,12.23
2023-03-21T21:32:10.134Z,9.10
2023-03-21T21:34:37.377Z,9.57
2023-03-21T21:37:03.813Z,9.17
2023-03-21T21:39:35.883Z,8.80
2023-03-21T21:42:02.508Z,8.00
2023-03-21T21:44:29.215Z,8.23
2023-03-21T21:46:57.387Z,6.77
2023-03-21T21:49:24.183Z,6.53
2023-03-21T21:51:50.750Z,7.77
2023-03-21T21:54:18.213Z,6.07
2023-03-21T21:56:48.409Z,7.13
2023-03-21T21:59:21.990Z,8.37
2023-03-21T22:01:51.098Z,6.60
2023-03-21T22:04:18.039Z,8.40
2023-03-21T22:06:44.662Z,6.73
2023-03-21T22:09:11.124Z,10.13
2023-03-21T22:11:37.579Z,7.47
2023-03-21T22:14:04.046Z,6.57
2023-03-21T22:16:30.584Z,8.10
2023-03-21T22:18:57.153Z,6.03
2023-03-21T22:21:23.960Z,7.20
2023-03-21T22:23:50.566Z,8.13
2023-03-21T22:26:17.090Z,8.13
2023-03-21T22:28:43.738Z,9.20
2023-03-21T22:31:15.948Z,8.47
2023-03-21T22:33:43.595Z,8.23
2023-03-21T22:36:10.633Z,9.57
2023-03-21T22:38:38.112Z,9.67
2023-03-21T22:41:05.893Z,9.23
2023-03-21T22:43:34.135Z,8.93
2023-03-21T22:46:05.325Z,11.27
2023-03-21T22:48:32.434Z,10.60
2023-03-21T22:51:00.486Z,10.07
2023-03-21T22:53:27.746Z,10.47
2023-03-21T22:55:54.567Z,11.20
2023-03-21T22:58:21.427Z,9.60
2023-03-21T23:00:48.311Z,11.07
2023-03-21T23:03:16.704Z,11.07
2023-03-21T23:05:44.451Z,12.30
2023-03-21T23:08:11.643Z,10.00
2023-03-21T23:10:39.572Z,11.77
2023-03-21T23:13:06.663Z,12.30
2023-03-21T23:15:33.709Z,15.03
2023-03-21T23:18:00.536Z,16.43
2023-03-21T23:20:27.103Z,13.97
2023-03-21T23:22:53.741Z,15.70
2023-03-21T23:25:20.530Z,13.40
2023-03-21T23:27:47.764Z,11.63
2023-03-21T23:30:14.540Z,11.47
2023-03-21T23:32:41.376Z,12.70
2023-03-21T23:35:08.659Z,11.97
2023-03-21T23:37:35.434Z,9.10
2023-03-21T23:40:02.189Z,8.17
2023-03-21T23:42:29.666Z,8.00
2023-03-21T23:44:57.072Z,9.63
2023-03-21T23:47:23.720Z,8.33
2023-03-21T23:49:52.708Z,7.47
2023-03-21T23:52:19.387Z,7.23
2023-03-21T23:54:46.155Z,7.67
2023-03-21T23:57:12.682Z,8.97
2023-03-21T23:59:39.181Z,9.50
